Time;durP1;ratioP1;P1;durP2;ratioP2;P2;SDS_P1;SDS_P2;PMS_P1;PMS_P2;Temp;Humidity;BMP_temperature;BMP_pressure;BME280_temperature;BME280_humidity;BME280_pressure;Samples;Min_cycle;Max_cycle;Signal;HPM_P1;HPM_P2
2021/11/12 00:13:55;;;;;;;106.07;29.73;;;;;;;2.00;98.29;101145.66;20989484;28;20390;-71
2021/11/12 00:23:56;;;;;;;102.10;29.33;;;;;;;1.88;99.09;101144.41;20988552;28;20037;-70
2021/11/12 00:45:09;;;;;;;135.00;32.75;;;;;;;1.73;100.00;101140.50;20985851;28;20507;-70
2021/11/12 00:54:45;;;;;;;98.93;31.48;;;;;;;1.85;99.61;101142.59;20978167;28;20080;-70
2021/11/12 01:04:46;;;;;;;108.82;28.85;;;;;;;1.78;99.23;101138.06;20984012;28;20080;-71
2021/11/12 01:14:48;;;;;;;103.47;26.63;;;;;;;1.75;99.20;101125.94;20984194;28;20660;-70
2021/11/12 01:24:50;;;;;;;112.10;27.13;;;;;;;1.75;98.79;101112.16;20982959;28;20106;-70
2021/11/12 01:34:55;;;;;;;88.93;22.48;;;;;;;1.68;98.76;101108.50;20981635;28;20101;-70
2021/11/12 01:45:03;;;;;;;90.10;22.95;;;;;;;1.63;99.16;101098.84;20981778;28;20071;-70
2021/11/12 01:55:11;;;;;;;67.80;21.50;;;;;;;1.62;99.59;101090.22;20981472;28;20049;-71
2021/11/12 02:05:13;;;;;;;64.03;20.30;;;;;;;1.65;98.97;101092.91;20980746;28;20064;-71
2021/11/12 02:15:15;;;;;;;62.65;21.00;;;;;;;1.73;99.53;101088.88;20982039;28;20052;-70
2021/11/12 02:25:28;;;;;;;59.33;20.35;;;;;;;1.82;99.08;101071.91;20982101;28;20053;-71
2021/11/12 02:35:32;;;;;;;71.43;19.77;;;;;;;1.75;99.20;101066.56;20979464;28;20093;-72
2021/11/12 02:45:36;;;;;;;80.90;20.80;;;;;;;1.76;98.68;101068.31;20979891;28;20117;-71
2021/11/12 02:55:38;;;;;;;77.87;19.50;;;;;;;1.74;98.80;101064.81;20993757;28;20063;-71
2021/11/12 03:05:40;;;;;;;66.20;18.85;;;;;;;1.66;99.22;101066.28;20993388;28;20494;-71
2021/11/12 03:15:41;;;;;;;48.28;18.10;;;;;;;1.46;99.82;101057.91;20993679;28;20053;-71
2021/11/12 03:25:51;;;;;;;61.05;20.02;;;;;;;1.43;100.00;101059.50;20992344;28;20498;-71
2021/11/12 04:07:20;;;;;;;79.07;24.50;;;;;;;1.43;99.47;101050.06;20988355;28;20493;-70
2021/11/12 04:17:35;;;;;;;75.50;22.85;;;;;;;1.27;99.38;101040.09;20990142;28;20467;-70
2021/11/12 05:50:13;;;;;;;59.35;21.88;;;;;;;1.92;98.82;100993.91;20981433;28;20048;-71
2021/11/12 06:00:18;;;;;;;65.68;23.60;;;;;;;1.75;97.26;101002.03;20981856;28;20478;-70
2021/11/12 06:10:19;;;;;;;65.05;22.92;;;;;;;1.77;97.88;100992.63;20981352;28;20048;-72
2021/11/12 06:20:21;;;;;;;67.72;23.67;;;;;;;1.80;98.32;100986.66;20980435;28;20053;-71
2021/11/12 06:30:23;;;;;;;52.65;21.80;;;;;;;1.61;97.09;100995.56;20993398;28;20044;-70
2021/11/12 06:40:24;;;;;;;59.45;20.98;;;;;;;1.62;97.70;100987.00;20996771;28;20118;-70
2021/11/12 06:50:26;;;;;;;79.20;24.83;;;;;;;1.72;97.80;100994.16;20995820;28;20099;-70
2021/11/12 07:00:27;;;;;;;64.28;22.00;;;;;;;1.66;97.28;100999.16;20993701;28;20098;-71
2021/11/12 07:10:29;;;;;;;73.57;22.73;;;;;;;1.44;97.77;100991.63;20995153;28;20379;-70
2021/11/12 07:20:31;;;;;;;73.70;21.00;;;;;;;1.51;98.27;100998.69;20992748;28;20128;-69
2021/11/12 07:30:34;;;;;;;64.60;22.70;;;;;;;1.40;99.20;101000.09;20993331;28;20113;-69
2021/11/12 07:40:48;;;;;;;85.30;24.92;;;;;;;1.63;97.81;100999.09;20968223;28;20558;-69
2021/11/12 07:50:50;;;;;;;94.70;24.60;;;;;;;1.63;98.04;101004.25;20948505;28;20282;-69
2021/11/12 08:00:52;;;;;;;86.55;24.52;;;;;;;1.69;98.63;101006.13;20975555;28;20044;-69
2021/11/12 08:11:40;;;;;;;60.33;22.92;;;;;;;1.79;98.74;101015.91;20940739;28;20049;-69
2021/11/12 08:31:29;;;;;;;60.60;20.27;;;;;;;1.75;98.43;100991.69;20957195;28;20494;-69
2021/11/12 08:41:45;;;;;;;64.55;20.75;;;;;;;1.92;98.36;100981.00;20931377;28;20076;-69
2021/11/12 08:51:47;;;;;;;64.05;21.40;;;;;;;1.94;98.58;100987.06;20896084;28;20135;-68
2021/11/12 09:01:51;;;;;;;57.20;19.73;;;;;;;1.89;97.05;100976.59;20898350;28;20083;-67
2021/11/12 09:11:54;;;;;;;57.35;20.55;;;;;;;2.10;97.78;100975.44;20913069;28;20059;-68
2021/11/12 09:21:56;;;;;;;56.22;22.55;;;;;;;2.22;97.42;100966.34;20978603;28;20041;-68
2021/11/12 09:31:58;;;;;;;57.15;20.90;;;;;;;2.39;95.96;100943.50;20975138;28;20053;-68
2021/11/12 09:42:00;;;;;;;48.50;20.33;;;;;;;2.52;97.05;100939.53;20975858;28;20337;-67
2021/11/12 09:52:06;;;;;;;55.65;23.23;;;;;;;2.71;96.80;100915.03;20975943;28;20044;-68
2021/11/12 10:02:09;;;;;;;48.30;19.60;;;;;;;2.61;94.91;100893.25;20971851;28;20045;-67
2021/11/12 10:12:11;;;;;;;50.33;20.33;;;;;;;2.61;95.64;100892.38;20952858;28;20486;-67
2021/11/12 10:22:15;;;;;;;51.42;20.50;;;;;;;2.89;95.05;100880.97;20890690;28;20052;-68
2021/11/12 10:32:30;;;;;;;61.35;21.00;;;;;;;2.89;93.92;100894.78;20907532;28;20072;-67
2021/11/12 10:42:34;;;;;;;59.80;22.05;;;;;;;2.70;96.56;100883.13;20965902;28;20529;-68
2021/11/12 10:52:37;;;;;;;76.57;29.03;;;;;;;2.87;95.55;100867.13;20969233;28;20056;-67
2021/11/12 11:02:42;;;;;;;50.08;20.95;;;;;;;2.60;96.39;100849.28;21027095;22;20040;-68
2021/11/12 11:12:44;;;;;;;60.42;22.90;;;;;;;2.69;95.62;100833.97;20980404;28;20136;-67
2021/11/12 11:22:50;;;;;;;48.88;20.10;;;;;;;2.88;96.40;100828.38;20986840;28;20106;-67
2021/11/12 11:32:52;;;;;;;46.80;20.48;;;;;;;3.00;94.86;100814.84;20986569;28;20052;-67
2021/11/12 11:42:55;;;;;;;48.60;21.30;;;;;;;2.87;94.19;100812.81;20986077;28;20049;-67
2021/11/12 11:53:23;;;;;;;50.40;20.98;;;;;;;2.79;95.38;100810.94;20985253;28;20463;-67
2021/11/12 12:03:25;;;;;;;45.92;19.45;;;;;;;3.22;93.42;100790.31;20985963;28;20114;-67
2021/11/12 12:13:28;;;;;;;45.22;19.73;;;;;;;3.14;94.37;100790.13;20954438;28;20048;-67
2021/11/12 13:25:27;;;;;;;37.45;18.30;;;;;;;3.30;92.54;100743.00;20978221;28;20044;-67
2021/11/12 13:35:30;;;;;;;36.35;17.20;;;;;;;3.27;92.82;100734.34;20978145;28;20048;-68
2021/11/12 13:45:32;;;;;;;31.65;15.45;;;;;;;2.74;93.82;100740.16;20978037;28;20045;-67
2021/11/12 13:55:36;;;;;;;33.33;16.67;;;;;;;2.79;94.39;100728.19;20977463;28;20057;-67
2021/11/12 14:05:52;;;;;;;40.83;17.60;;;;;;;3.06;93.82;100732.19;20976545;28;20110;-68
2021/11/12 14:16:12;;;;;;;39.83;18.77;;;;;;;2.89;93.26;100736.16;20924430;28;20094;-68
2021/11/12 14:26:26;;;;;;;42.13;18.65;;;;;;;2.67;94.79;100735.69;20893280;28;20103;-68
2021/11/12 14:36:36;;;;;;;48.67;20.42;;;;;;;2.87;94.25;100735.22;20892191;28;20053;-69
2021/11/12 14:56:51;;;;;;;54.35;21.95;;;;;;;2.77;94.66;100732.44;20977617;28;20057;-70
2021/11/12 15:06:53;;;;;;;53.88;22.73;;;;;;;2.90;94.00;100714.63;20985914;28;20040;-69
2021/11/12 15:16:56;;;;;;;55.33;23.05;;;;;;;2.65;94.20;100713.25;20922265;28;20065;-69
2021/11/12 15:37:10;;;;;;;53.83;21.25;;;;;;;2.43;94.78;100696.38;20904005;28;20052;-68
2021/11/12 16:07:50;;;;;;;53.03;21.17;;;;;;;2.56;94.76;100678.59;20956772;28;20048;-68
2021/11/12 16:28:01;;;;;;;51.37;21.30;;;;;;;2.69;94.99;100692.66;20982480;28;20052;-67
2021/11/12 16:38:17;;;;;;;48.45;20.27;;;;;;;2.58;94.65;100710.50;20981156;28;20044;-68
2021/11/12 21:50:00;;;;;;;49.30;18.90;;;;;;;2.83;98.17;100572.28;20977004;28;20570;-68
2021/11/12 22:00:05;;;;;;;57.05;19.45;;;;;;;2.95;98.31;100557.81;20975115;28;20052;-68
2021/11/12 22:10:07;;;;;;;51.27;19.10;;;;;;;3.03;97.57;100545.91;20974760;28;20479;-68
2021/11/12 22:20:11;;;;;;;51.95;20.23;;;;;;;3.07;97.94;100563.22;20977257;28;20306;-68
2021/11/12 22:30:13;;;;;;;53.50;22.38;;;;;;;3.00;98.01;100556.19;20974300;28;20048;-68
2021/11/12 22:40:15;;;;;;;46.17;20.98;;;;;;;3.06;97.70;100551.97;20975074;28;20474;-68
2021/11/12 22:50:16;;;;;;;54.90;19.75;;;;;;;3.08;97.84;100547.72;20955221;28;20053;-68
2021/11/12 23:00:33;;;;;;;49.83;20.50;;;;;;;3.08;98.03;100534.78;20930508;28;20501;-67
2021/11/12 23:10:36;;;;;;;51.05;22.50;;;;;;;3.17;97.45;100547.00;20947302;28;20175;-69
2021/11/12 23:20:37;;;;;;;46.42;19.63;;;;;;;3.01;98.07;100557.91;20926496;28;20033;-69
2021/11/12 23:30:40;;;;;;;61.05;24.38;;;;;;;3.12;98.09;100559.00;20912383;28;20045;-68
2021/11/12 23:40:42;;;;;;;46.35;20.42;;;;;;;3.10;97.15;100571.00;20912308;28;20107;-68
2021/11/12 23:50:45;;;;;;;45.78;21.60;;;;;;;3.13;97.42;100563.31;20909744;28;20098;-69
